Time;durP1;ratioP1;P1;durP2;ratioP2;P2;SDS_P1;SDS_P2;PMS_P1;PMS_P2;Temp;Humidity;BMP_temperature;BMP_pressure;BME280_temperature;BME280_humidity;BME280_pressure;Samples;Min_cycle;Max_cycle;Signal;HPM_P1;HPM_P2
2022/03/07 00:00:56;;;;;;;10.05;4.65;;;3.10;37.20;;;;;;2514976;55;21515;-65
2022/03/07 00:03:25;;;;;;;11.43;5.40;;;3.10;37.20;;;;;;2516199;55;20998;-64
2022/03/07 00:05:52;;;;;;;8.63;4.55;;;3.00;37.30;;;;;;2433149;55;21046;-64
2022/03/07 00:08:19;;;;;;;8.45;4.30;;;3.00;37.40;;;;;;2282258;55;20946;-66
2022/03/07 00:10:59;;;;;;;8.13;4.20;;;3.00;37.40;;;;;;2282651;55;21800;-65
2022/03/07 00:13:26;;;;;;;8.93;4.25;;;3.00;37.30;;;;;;2282644;56;21014;-63
2022/03/07 00:15:55;;;;;;;9.40;4.70;;;2.90;37.20;;;;;;2515684;55;20983;-66
2022/03/07 00:18:22;;;;;;;7.85;4.18;;;2.90;37.30;;;;;;2284650;56;21007;-64
2022/03/07 00:20:49;;;;;;;7.78;3.92;;;2.90;37.40;;;;;;2350181;55;21010;-66
2022/03/07 00:23:16;;;;;;;9.35;4.95;;;2.80;37.40;;;;;;2282678;55;20907;-65
2022/03/07 00:25:42;;;;;;;11.50;4.70;;;2.80;37.40;;;;;;2360698;55;20958;-64
2022/03/07 00:28:09;;;;;;;11.07;5.35;;;2.70;37.40;;;;;;2282284;55;20963;-65
2022/03/07 00:30:35;;;;;;;11.45;5.28;;;2.70;37.40;;;;;;2282360;55;20995;-66
2022/03/07 00:33:04;;;;;;;8.05;4.25;;;2.70;37.50;;;;;;2282505;56;21010;-64
2022/03/07 00:35:31;;;;;;;11.18;4.95;;;2.60;37.40;;;;;;2515213;54;20975;-64
2022/03/07 00:37:57;;;;;;;11.70;6.28;;;2.60;37.40;;;;;;2282506;55;20933;-65
2022/03/07 00:40:24;;;;;;;12.60;6.00;;;2.50;37.40;;;;;;2515548;55;20950;-65
2022/03/07 00:42:51;;;;;;;11.93;6.03;;;2.50;37.60;;;;;;2282108;55;21002;-66
2022/03/07 00:45:17;;;;;;;12.65;5.68;;;2.40;37.50;;;;;;2283790;55;20875;-64
2022/03/07 00:47:47;;;;;;;10.07;5.05;;;2.40;37.60;;;;;;2277625;55;21032;-65
2022/03/07 00:50:13;;;;;;;8.48;4.32;;;2.40;37.70;;;;;;2514438;55;21030;-64
2022/03/07 00:52:40;;;;;;;8.43;4.57;;;2.30;37.50;;;;;;2281149;55;20972;-66
2022/03/07 00:55:10;;;;;;;8.73;4.82;;;2.30;37.50;;;;;;2451175;55;20997;-66
2022/03/07 00:57:39;;;;;;;;;;;2.20;37.60;;;;;;2285559;56;21014;-65
2022/03/07 01:00:07;;;;;;;7.20;4.18;;;2.20;37.90;;;;;;2282208;55;20173;-66
2022/03/07 01:02:33;;;;;;;7.78;4.37;;;2.20;37.60;;;;;;2310067;55;21027;-65
2022/03/07 01:05:00;;;;;;;10.02;5.03;;;2.10;37.60;;;;;;2278037;56;20922;-65
2022/03/07 01:07:27;;;;;;;10.27;5.40;;;2.10;37.70;;;;;;2254927;56;21062;-65
2022/03/07 01:09:54;;;;;;;9.15;5.00;;;2.00;37.70;;;;;;2282461;55;20972;-65
2022/03/07 01:12:20;;;;;;;10.55;5.57;;;2.00;37.90;;;;;;2276566;55;20974;-65
2022/03/07 01:14:46;;;;;;;10.43;5.93;;;2.00;38.00;;;;;;2282132;56;21134;-64
2022/03/07 01:17:13;;;;;;;10.35;5.82;;;1.90;38.00;;;;;;2281074;56;21592;-66
2022/03/07 01:19:39;;;;;;;10.48;6.18;;;1.90;38.20;;;;;;2283702;56;20951;-63
2022/03/07 01:22:06;;;;;;;11.57;5.78;;;1.90;38.20;;;;;;2284157;56;20949;-64
2022/03/07 01:24:32;;;;;;;8.73;5.12;;;1.90;38.30;;;;;;2284186;56;20962;-66
2022/03/07 01:26:59;;;;;;;10.82;5.55;;;1.90;38.30;;;;;;2517759;55;21681;-66
2022/03/07 01:29:26;;;;;;;9.40;4.90;;;1.90;38.30;;;;;;2258700;56;22046;-66
2022/03/07 01:31:52;;;;;;;10.82;5.97;;;1.90;38.40;;;;;;2279734;56;21736;-63
2022/03/07 01:34:21;;;;;;;10.32;5.50;;;1.90;38.40;;;;;;2434074;55;21006;-64
2022/03/07 01:36:49;;;;;;;9.20;5.32;;;1.90;38.50;;;;;;2280055;56;20958;-63
2022/03/07 01:39:18;;;;;;;11.40;5.30;;;1.90;38.60;;;;;;2280447;56;21030;-64
2022/03/07 01:41:44;;;;;;;9.55;5.32;;;1.90;38.70;;;;;;2280257;56;20986;-65
2022/03/07 01:44:18;;;;;;;10.63;5.30;;;1.90;38.70;;;;;;2280219;56;21431;-64
2022/03/07 01:46:44;;;;;;;13.50;5.80;;;1.90;38.70;;;;;;2279996;56;21026;-65
2022/03/07 01:49:10;;;;;;;14.30;7.50;;;1.90;38.70;;;;;;2280791;56;20973;-63
2022/03/07 01:51:38;;;;;;;12.50;5.85;;;1.90;38.80;;;;;;2279504;56;20970;-66
2022/03/07 01:54:04;;;;;;;8.93;5.00;;;1.90;38.80;;;;;;2513200;55;20935;-66
2022/03/07 01:56:31;;;;;;;10.75;6.18;;;1.90;38.80;;;;;;2300177;55;20978;-65
2022/03/07 01:58:57;;;;;;;11.32;5.60;;;1.90;38.80;;;;;;2280927;56;20982;-64
2022/03/07 02:01:23;;;;;;;10.73;5.80;;;1.90;38.80;;;;;;2277039;56;21025;-64
2022/03/07 02:03:50;;;;;;;9.70;5.15;;;1.90;38.80;;;;;;2279669;56;20970;-66
2022/03/07 02:06:16;;;;;;;10.32;5.30;;;1.90;38.80;;;;;;2512569;54;20982;-64
2022/03/07 02:08:42;;;;;;;10.27;5.40;;;1.80;38.70;;;;;;2275912;55;20986;-65
2022/03/07 02:11:08;;;;;;;9.18;5.37;;;1.90;38.80;;;;;;2407231;55;21076;-66
2022/03/07 02:13:35;;;;;;;9.63;5.43;;;1.90;38.80;;;;;;2279811;55;20951;-66
2022/03/07 02:16:02;;;;;;;8.93;5.00;;;1.80;38.70;;;;;;2329009;55;21074;-64
2022/03/07 02:18:30;;;;;;;8.20;4.90;;;1.80;38.80;;;;;;2281018;55;21011;-64
2022/03/07 02:20:58;;;;;;;10.60;5.30;;;1.80;38.70;;;;;;2405042;55;20986;-64
2022/03/07 02:23:24;;;;;;;10.65;5.43;;;1.80;38.70;;;;;;2279217;55;21039;-65
2022/03/07 02:25:53;;;;;;;9.50;5.15;;;1.70;38.70;;;;;;2297367;55;20974;-65
2022/03/07 02:28:20;;;;;;;10.93;5.47;;;1.70;38.70;;;;;;2281077;56;21026;-63
2022/03/07 02:30:46;;;;;;;9.32;5.18;;;1.70;38.70;;;;;;2510766;55;20943;-63
2022/03/07 02:33:13;;;;;;;8.48;4.78;;;1.60;38.60;;;;;;2280266;55;20930;-63
2022/03/07 02:35:40;;;;;;;7.30;4.10;;;1.60;38.70;;;;;;2420348;55;21033;-63
2022/03/07 02:38:16;;;;;;;8.23;4.75;;;1.50;38.70;;;;;;2277335;56;21018;-65
2022/03/07 02:40:46;;;;;;;9.07;5.30;;;1.50;38.80;;;;;;2354540;55;20959;-64
2022/03/07 02:46:21;;;;;;;7.12;4.25;;;1.40;39.20;;;;;;2288820;55;20073;-65
2022/03/07 02:48:48;;;;;;;11.15;4.90;;;1.40;38.70;;;;;;2362538;55;20958;-66
2022/03/07 02:51:14;;;;;;;8.98;4.85;;;1.30;38.60;;;;;;2309136;55;21831;-64
2022/03/07 02:53:43;;;;;;;7.93;4.47;;;1.30;38.70;;;;;;2482226;55;20962;-64
2022/03/07 02:56:10;;;;;;;8.38;4.57;;;1.20;38.70;;;;;;2507727;55;21062;-64
2022/03/07 02:58:36;;;;;;;10.30;5.12;;;1.20;38.80;;;;;;2274025;55;20965;-63
2022/03/07 03:01:03;;;;;;;8.75;4.97;;;1.10;38.80;;;;;;2475796;54;20930;-65
2022/03/07 03:03:33;;;;;;;8.20;4.82;;;1.10;38.90;;;;;;2281517;55;21407;-63
2022/03/07 03:06:00;;;;;;;9.50;5.35;;;1.10;39.00;;;;;;2289862;55;21045;-65
2022/03/07 03:08:26;;;;;;;9.15;5.03;;;1.00;38.90;;;;;;2280703;56;21002;-65
2022/03/07 03:10:54;;;;;;;10.00;5.55;;;1.00;39.00;;;;;;2325174;55;21010;-63
2022/03/07 03:13:22;;;;;;;11.73;5.87;;;1.00;39.00;;;;;;2279687;55;21027;-65
2022/03/07 03:15:51;;;;;;;10.90;4.87;;;0.90;39.00;;;;;;2352801;55;21007;-65
2022/03/07 03:18:18;;;;;;;8.32;4.62;;;0.90;39.00;;;;;;2282950;55;20943;-65
2022/03/07 03:20:45;;;;;;;10.48;5.55;;;0.90;39.10;;;;;;2308378;55;20930;-65
2022/03/07 03:23:11;;;;;;;10.20;5.53;;;0.80;39.10;;;;;;2279314;55;20920;-64
2022/03/07 03:25:41;;;;;;;10.98;5.68;;;0.80;39.20;;;;;;2262736;55;21431;-65
2022/03/07 03:28:07;;;;;;;10.07;5.78;;;0.80;39.20;;;;;;2272840;55;21453;-64
2022/03/07 03:30:36;;;;;;;9.52;5.53;;;0.70;39.30;;;;;;2341047;55;20933;-66
2022/03/07 03:33:02;;;;;;;8.68;5.03;;;0.70;39.30;;;;;;2512962;55;21026;-63
2022/03/07 03:35:30;;;;;;;10.50;5.75;;;0.70;39.50;;;;;;2391738;55;20954;-65
2022/03/07 03:37:57;;;;;;;11.23;5.75;;;0.60;39.30;;;;;;2284556;55;20986;-64
2022/03/07 03:40:26;;;;;;;11.50;5.55;;;0.60;39.50;;;;;;2412195;55;21010;-64
2022/03/07 03:42:53;;;;;;;9.07;4.97;;;0.60;39.60;;;;;;2280761;56;20982;-63
2022/03/07 03:45:20;;;;;;;9.48;5.47;;;0.60;39.60;;;;;;2316497;55;21026;-65
2022/03/07 03:47:47;;;;;;;9.98;5.28;;;0.60;39.60;;;;;;2410739;55;21360;-64
2022/03/07 03:50:14;;;;;;;11.88;6.47;;;0.50;39.60;;;;;;2310939;55;21062;-65
2022/03/07 03:52:41;;;;;;;13.10;6.62;;;0.50;39.60;;;;;;2283816;56;20940;-65
2022/03/07 03:55:10;;;;;;;10.95;6.18;;;0.50;39.80;;;;;;2477489;55;21130;-65
2022/03/07 03:57:38;;;;;;;12.50;6.05;;;0.50;40.00;;;;;;2386317;55;20974;-65
2022/03/07 04:00:06;;;;;;;13.05;6.62;;;0.50;40.00;;;;;;2293447;55;21059;-65
2022/03/07 04:02:32;;;;;;;12.15;6.43;;;0.50;40.00;;;;;;2282174;56;20947;-64
2022/03/07 04:04:59;;;;;;;10.38;5.53;;;0.50;40.00;;;;;;2277763;55;21511;-63
2022/03/07 04:07:27;;;;;;;10.98;5.57;;;0.50;40.00;;;;;;2280275;55;21022;-63
2022/03/07 04:09:54;;;;;;;9.80;5.40;;;0.50;40.10;;;;;;2286663;55;20983;-65
2022/03/07 04:12:22;;;;;;;10.52;5.35;;;0.40;39.90;;;;;;2280906;56;20974;-65
2022/03/07 04:14:48;;;;;;;9.40;5.25;;;0.40;39.90;;;;;;2277882;55;21022;-63
2022/03/07 04:17:15;;;;;;;13.60;6.05;;;0.40;40.00;;;;;;2280688;56;21030;-64
2022/03/07 04:19:42;;;;;;;11.85;6.03;;;0.40;40.00;;;;;;2292029;55;20934;-64
2022/03/07 04:22:10;;;;;;;12.25;6.25;;;0.40;40.00;;;;;;2296481;55;20977;-65
2022/03/07 04:24:36;;;;;;;10.20;5.68;;;0.40;40.00;;;;;;2305666;55;20965;-64
2022/03/07 04:27:03;;;;;;;10.10;6.00;;;0.40;40.10;;;;;;2280882;56;20982;-63
2022/03/07 04:29:30;;;;;;;13.05;5.72;;;0.40;40.10;;;;;;2357721;55;20991;-64
2022/03/07 04:31:56;;;;;;;12.52;5.80;;;0.30;40.10;;;;;;2358464;55;20977;-64
2022/03/07 04:34:23;;;;;;;10.43;5.90;;;0.30;40.10;;;;;;2331468;55;21940;-65
2022/03/07 04:36:49;;;;;;;11.43;5.87;;;0.30;40.20;;;;;;2280740;55;21464;-64
2022/03/07 04:39:16;;;;;;;11.43;5.57;;;0.30;40.30;;;;;;2280748;56;21678;-65
2022/03/07 04:41:44;;;;;;;10.10;5.32;;;0.30;40.30;;;;;;2280374;56;21026;-64
2022/03/07 04:44:11;;;;;;;12.85;6.20;;;0.30;40.30;;;;;;2307018;55;20976;-64
2022/03/07 04:46:38;;;;;;;10.05;5.65;;;0.30;40.30;;;;;;2279054;55;21041;-65
2022/03/07 04:49:04;;;;;;;10.40;5.30;;;0.30;40.30;;;;;;2442220;55;21808;-65
2022/03/07 04:51:31;;;;;;;10.55;5.37;;;0.30;40.30;;;;;;2282601;55;21054;-63
2022/03/07 04:53:57;;;;;;;11.50;5.68;;;0.30;40.30;;;;;;2276652;55;21013;-63
2022/03/07 04:56:24;;;;;;;10.88;5.43;;;0.30;40.30;;;;;;2282798;56;20979;-64
2022/03/07 04:58:50;;;;;;;9.77;4.85;;;0.30;40.30;;;;;;2508942;54;21010;-65
2022/03/07 05:01:17;;;;;;;10.38;5.05;;;0.20;40.20;;;;;;2278310;56;21035;-65
2022/03/07 05:03:43;;;;;;;9.00;5.07;;;0.20;40.20;;;;;;2509405;55;20982;-65
2022/03/07 05:06:10;;;;;;;9.40;5.12;;;0.20;40.20;;;;;;2276921;55;20942;-65
2022/03/07 05:08:38;;;;;;;8.35;4.40;;;0.20;40.20;;;;;;2312480;55;21078;-65
2022/03/07 05:11:05;;;;;;;11.07;5.80;;;0.20;40.20;;;;;;2279822;55;20997;-64
2022/03/07 05:13:31;;;;;;;10.60;5.78;;;0.10;40.20;;;;;;2305847;55;22183;-65
2022/03/07 05:15:57;;;;;;;10.95;5.47;;;0.10;40.30;;;;;;2274829;55;21404;-66
2022/03/07 05:18:25;;;;;;;9.52;4.75;;;0.10;40.40;;;;;;2413531;55;20941;-64
2022/03/07 05:20:55;;;;;;;10.68;5.07;;;0.10;40.40;;;;;;2374982;55;20982;-65
2022/03/07 05:23:24;;;;;;;10.68;5.50;;;0.10;40.50;;;;;;2259663;56;21019;-63
2022/03/07 05:25:51;;;;;;;10.60;5.50;;;0.00;40.50;;;;;;2281754;55;21021;-64
2022/03/07 05:28:17;;;;;;;11.07;5.72;;;0.00;40.50;;;;;;2277860;55;20943;-65
2022/03/07 05:30:43;;;;;;;9.00;4.68;;;0.00;40.40;;;;;;2297736;54;21032;-63
2022/03/07 05:33:09;;;;;;;10.20;5.43;;;0.00;40.50;;;;;;2278520;56;20979;-65
2022/03/07 05:35:39;;;;;;;9.98;5.25;;;0.00;40.50;;;;;;2278584;56;20958;-64
2022/03/07 05:38:05;;;;;;;11.02;5.68;;;0.00;40.50;;;;;;2511203;55;20974;-65
2022/03/07 05:40:34;;;;;;;8.70;5.00;;;0.00;41.10;;;;;;2281770;56;21605;-65
2022/03/07 05:43:01;;;;;;;10.20;5.68;;;0.00;40.80;;;;;;2274166;55;21911;-64
2022/03/07 05:45:27;;;;;;;11.32;5.80;;;-0.10;40.70;;;;;;2278842;56;21526;-65
2022/03/07 05:47:54;;;;;;;9.40;5.40;;;-0.10;40.70;;;;;;2282225;55;21467;-65
2022/03/07 05:50:22;;;;;;;10.65;5.53;;;-0.10;40.80;;;;;;2279288;56;21006;-64
2022/03/07 05:52:48;;;;;;;11.52;5.78;;;-0.10;40.80;;;;;;2278604;55;21014;-64
2022/03/07 05:55:14;;;;;;;10.13;5.28;;;-0.10;40.90;;;;;;2278220;56;20990;-64
2022/03/07 05:57:41;;;;;;;11.12;5.95;;;-0.10;41.10;;;;;;2278099;55;20940;-65
2022/03/07 06:00:09;;;;;;;11.70;5.82;;;0.00;41.30;;;;;;2278807;55;20961;-64
2022/03/07 06:02:35;;;;;;;10.43;5.82;;;0.10;41.60;;;;;;2278389;55;21462;-65
2022/03/07 06:05:02;;;;;;;10.43;6.07;;;0.10;41.60;;;;;;2279391;56;20962;-63
2022/03/07 06:08:08;;;;;;;10.45;6.22;;;0.20;41.90;;;;;;2277843;55;21031;-64
2022/03/07 06:10:37;;;;;;;11.65;5.68;;;0.30;42.20;;;;;;2278451;55;21050;-65
2022/03/07 06:13:03;;;;;;;11.60;6.37;;;0.40;42.00;;;;;;2279322;56;20950;-63
2022/03/07 06:15:30;;;;;;;11.65;6.50;;;0.50;42.10;;;;;;2279346;56;21010;-63
2022/03/07 06:17:57;;;;;;;11.05;5.85;;;0.60;42.20;;;;;;2278595;56;21041;-64
2022/03/07 06:20:24;;;;;;;12.13;6.55;;;0.80;42.20;;;;;;2279044;55;21289;-63
2022/03/07 06:22:50;;;;;;;11.75;6.07;;;0.90;42.20;;;;;;2278933;55;20958;-65
2022/03/07 06:25:17;;;;;;;10.73;6.07;;;1.00;42.20;;;;;;2284039;55;21859;-66
2022/03/07 06:27:43;;;;;;;11.77;5.80;;;1.10;42.20;;;;;;2341592;55;21490;-64
2022/03/07 06:30:10;;;;;;;9.70;5.97;;;1.20;42.20;;;;;;2276230;56;22076;-65
2022/03/07 06:32:36;;;;;;;11.18;6.28;;;1.30;42.10;;;;;;2274800;55;20977;-64
2022/03/07 06:35:04;;;;;;;10.60;6.03;;;1.40;42.10;;;;;;2279083;55;20954;-66
2022/03/07 06:37:36;;;;;;;10.57;5.97;;;1.50;42.20;;;;;;2276769;55;20964;-65
2022/03/07 06:40:05;;;;;;;9.13;5.10;;;1.60;42.10;;;;;;2278043;56;21005;-66
2022/03/07 06:42:31;;;;;;;11.32;6.20;;;1.70;42.10;;;;;;2275147;56;21459;-64
2022/03/07 06:44:58;;;;;;;12.30;6.30;;;1.80;42.00;;;;;;2278986;56;20986;-65
2022/03/07 06:47:24;;;;;;;10.73;5.40;;;1.90;42.00;;;;;;2274337;56;21010;-64
2022/03/07 06:50:00;;;;;;;14.20;7.60;;;1.90;41.90;;;;;;2271449;56;20958;-64
2022/03/07 06:53:00;;;;;;;8.38;5.35;;;2.00;41.90;;;;;;2279469;56;20994;-65
2022/03/07 06:55:32;;;;;;;11.00;6.47;;;2.10;42.00;;;;;;2277463;56;20970;-65
2022/03/07 06:57:58;;;;;;;8.45;5.43;;;2.20;41.80;;;;;;2279110;55;21040;-66
2022/03/07 07:00:25;;;;;;;8.98;5.05;;;2.30;41.80;;;;;;2304667;55;21057;-66
2022/03/07 07:02:51;;;;;;;9.77;5.18;;;2.30;41.70;;;;;;2407165;55;20961;-65
2022/03/07 07:05:17;;;;;;;8.63;4.80;;;2.40;41.70;;;;;;2278959;56;20954;-64
2022/03/07 07:07:44;;;;;;;10.05;5.78;;;2.50;41.70;;;;;;2467805;55;20954;-66
2022/03/07 07:10:11;;;;;;;10.27;6.28;;;2.50;41.70;;;;;;2279020;56;20966;-64
2022/03/07 07:12:38;;;;;;;15.20;8.27;;;2.60;41.70;;;;;;2278593;56;21082;-65
2022/03/07 07:15:06;;;;;;;13.38;7.87;;;2.60;41.70;;;;;;2279217;56;20966;-67
2022/03/07 07:17:33;;;;;;;11.48;6.93;;;2.70;41.80;;;;;;2278016;55;20987;-65
2022/03/07 07:20:01;;;;;;;16.17;8.07;;;2.60;41.60;;;;;;2397948;55;21934;-66
2022/03/07 07:22:31;;;;;;;13.48;7.43;;;2.80;41.70;;;;;;2278503;56;21562;-64
2022/03/07 07:24:58;;;;;;;11.65;6.47;;;2.80;41.60;;;;;;2279048;56;21022;-66
2022/03/07 07:27:24;;;;;;;11.18;6.22;;;2.80;41.60;;;;;;2356627;55;20953;-64
2022/03/07 07:29:52;;;;;;;11.23;7.00;;;2.80;41.60;;;;;;2279025;56;20982;-66
2022/03/07 07:32:18;;;;;;;10.90;6.43;;;2.90;41.70;;;;;;2278671;56;21919;-67
2022/03/07 07:34:45;;;;;;;10.60;6.37;;;2.90;41.70;;;;;;2430028;55;20982;-63
2022/03/07 07:37:11;;;;;;;9.60;5.80;;;3.00;41.70;;;;;;2279469;56;20957;-66
2022/03/07 07:39:39;;;;;;;10.30;5.95;;;3.00;41.70;;;;;;2277650;56;21503;-65
2022/03/07 07:42:06;;;;;;;10.32;5.68;;;3.10;41.80;;;;;;2278824;56;21454;-64
2022/03/07 07:44:34;;;;;;;9.85;6.03;;;3.10;41.80;;;;;;2278680;55;21013;-65
2022/03/07 07:47:01;;;;;;;9.88;6.05;;;3.20;41.90;;;;;;2278860;56;21030;-65
2022/03/07 07:49:29;;;;;;;10.77;6.15;;;3.30;41.90;;;;;;2277685;56;20986;-63
2022/03/07 07:51:55;;;;;;;11.60;6.47;;;3.30;41.80;;;;;;2278351;56;21027;-65
2022/03/07 07:54:21;;;;;;;10.43;6.55;;;3.40;41.80;;;;;;2278792;55;21014;-64
2022/03/07 07:56:48;;;;;;;9.85;6.05;;;3.40;41.70;;;;;;2278662;56;20970;-65
2022/03/07 07:59:15;;;;;;;10.85;6.20;;;3.50;41.70;;;;;;2279037;56;21753;-64
2022/03/07 08:01:41;;;;;;;9.43;5.97;;;3.60;41.70;;;;;;2278600;55;21800;-65
2022/03/07 08:04:08;;;;;;;11.02;6.40;;;3.60;41.60;;;;;;2283672;56;20955;-64
2022/03/07 08:06:34;;;;;;;10.85;6.32;;;3.70;41.60;;;;;;2280564;55;21025;-64
2022/03/07 08:09:03;;;;;;;9.77;6.07;;;3.70;41.60;;;;;;2276733;56;20962;-63
2022/03/07 08:11:29;;;;;;;12.02;6.62;;;3.80;41.60;;;;;;2279090;56;20963;-63
2022/03/07 08:13:55;;;;;;;9.73;5.82;;;3.90;41.70;;;;;;2278520;56;21546;-65
2022/03/07 08:16:22;;;;;;;9.52;6.05;;;3.90;41.70;;;;;;2278726;56;20946;-64
2022/03/07 08:18:48;;;;;;;10.75;6.37;;;4.00;41.70;;;;;;2278947;56;21026;-63
2022/03/07 08:21:15;;;;;;;11.20;6.90;;;4.10;41.70;;;;;;2278770;56;21493;-64
2022/03/07 08:23:41;;;;;;;11.40;6.37;;;4.10;41.60;;;;;;2278735;55;20985;-65
2022/03/07 08:26:08;;;;;;;9.90;6.18;;;4.20;41.70;;;;;;2279230;55;20962;-64
2022/03/07 08:28:34;;;;;;;8.65;5.85;;;4.30;41.80;;;;;;2278694;56;21467;-65
2022/03/07 08:31:00;;;;;;;9.48;6.12;;;4.50;42.30;;;;;;2280809;55;21004;-64
2022/03/07 08:33:31;;;;;;;9.80;5.53;;;4.70;42.70;;;;;;2274793;55;20958;-64
2022/03/07 08:35:58;;;;;;;10.90;6.10;;;5.00;43.10;;;;;;2278747;55;21134;-65
2022/03/07 08:38:25;;;;;;;9.77;6.03;;;5.30;43.30;;;;;;2275278;55;21705;-65
2022/03/07 08:40:54;;;;;;;8.93;5.07;;;5.60;43.30;;;;;;2276877;55;20966;-64
2022/03/07 08:43:20;;;;;;;7.95;5.57;;;5.90;43.30;;;;;;2253961;56;21495;-63
2022/03/07 08:45:50;;;;;;;8.48;5.55;;;6.20;43.30;;;;;;2255702;56;20997;-64
2022/03/07 08:48:21;;;;;;;7.28;5.00;;;6.50;43.10;;;;;;2257509;56;21055;-66
2022/03/07 08:50:48;;;;;;;8.63;5.25;;;6.80;43.20;;;;;;2258164;56;21022;-66
2022/03/07 08:53:17;;;;;;;9.85;5.55;;;7.10;43.10;;;;;;2257063;56;21737;-64
2022/03/07 08:55:44;;;;;;;9.30;5.05;;;7.50;43.10;;;;;;2256663;56;20946;-63
2022/03/07 08:58:12;;;;;;;9.30;5.35;;;7.70;42.80;;;;;;2254989;56;21006;-65
2022/03/07 09:00:38;;;;;;;8.35;5.22;;;7.90;42.30;;;;;;2253884;55;20984;-66
2022/03/07 09:03:06;;;;;;;7.18;4.22;;;8.20;41.80;;;;;;2252817;55;20949;-64
2022/03/07 09:05:32;;;;;;;9.68;5.15;;;8.30;41.40;;;;;;2256315;56;20937;-64
2022/03/07 09:07:58;;;;;;;8.52;5.28;;;8.40;41.20;;;;;;2255979;56;21045;-65
2022/03/07 09:10:24;;;;;;;7.03;4.62;;;8.40;40.80;;;;;;2256932;55;21001;-66
2022/03/07 09:12:54;;;;;;;5.93;4.30;;;8.50;40.70;;;;;;2484472;55;21040;-65
2022/03/07 09:15:20;;;;;;;8.23;5.40;;;8.50;40.50;;;;;;2257845;56;21818;-65
2022/03/07 09:17:46;;;;;;;8.02;5.37;;;8.60;40.30;;;;;;2256462;55;21017;-65
2022/03/07 09:20:13;;;;;;;7.40;4.70;;;8.60;40.00;;;;;;2484826;55;20934;-66
2022/03/07 09:22:39;;;;;;;7.78;5.07;;;8.70;40.00;;;;;;2492625;55;21043;-66
2022/03/07 09:25:08;;;;;;;9.02;5.80;;;8.70;39.90;;;;;;2239033;56;21042;-66
2022/03/07 09:31:03;;;;;;;7.82;4.32;;;8.90;39.70;;;;;;2444083;55;21807;-66
2022/03/07 09:33:29;;;;;;;8.10;4.40;;;9.10;40.30;;;;;;2256390;55;20957;-66
2022/03/07 09:35:56;;;;;;;7.20;4.68;;;9.30;40.40;;;;;;2275049;55;20942;-64
2022/03/07 09:38:22;;;;;;;7.45;4.68;;;9.40;40.40;;;;;;2287834;55;21348;-66
2022/03/07 09:40:49;;;;;;;7.82;4.37;;;9.60;40.30;;;;;;2388810;55;20979;-65
2022/03/07 09:43:15;;;;;;;7.50;4.87;;;9.70;40.20;;;;;;2287464;55;21062;-66
2022/03/07 09:45:45;;;;;;;8.45;5.45;;;9.90;40.20;;;;;;2335552;55;20990;-66
2022/03/07 09:48:12;;;;;;;8.90;6.03;;;10.00;39.00;;;;;;2289751;55;21843;-65
2022/03/07 09:50:40;;;;;;;7.80;5.28;;;10.20;39.20;;;;;;2518259;55;21042;-66
2022/03/07 09:53:07;;;;;;;7.43;5.15;;;10.40;39.40;;;;;;2287234;55;20943;-66
2022/03/07 09:55:35;;;;;;;7.18;4.80;;;10.60;39.50;;;;;;2287605;55;21425;-65
2022/03/07 09:58:01;;;;;;;7.78;5.37;;;10.80;39.30;;;;;;2497196;55;21488;-66
2022/03/07 10:00:28;;;;;;;7.22;4.82;;;11.00;39.30;;;;;;2522289;55;21015;-65
2022/03/07 10:03:10;;;;;;;7.55;5.20;;;11.20;39.40;;;;;;2285441;55;20946;-67
2022/03/07 10:05:50;;;;;;;7.68;5.62;;;11.50;39.60;;;;;;2288844;55;21656;-67
2022/03/07 10:08:29;;;;;;;7.82;5.50;;;11.80;40.50;;;;;;2288564;55;20931;-65
2022/03/07 10:10:57;;;;;;;7.60;5.45;;;12.10;39.60;;;;;;2486232;55;20930;-67
2022/03/07 10:13:24;;;;;;;7.43;5.45;;;12.40;39.80;;;;;;2287987;55;21046;-67
2022/03/07 10:15:59;;;;;;;8.15;5.80;;;12.70;39.70;;;;;;2511299;55;20987;-66
2022/03/07 10:18:26;;;;;;;7.57;5.20;;;13.00;39.30;;;;;;2397820;54;20996;-68
2022/03/07 10:20:54;;;;;;;7.25;5.28;;;13.30;39.50;;;;;;2521115;55;21384;-66
2022/03/07 10:23:21;;;;;;;7.50;5.57;;;13.50;39.30;;;;;;2287858;55;20979;-65
2022/03/07 10:25:50;;;;;;;8.00;5.35;;;13.80;39.10;;;;;;2329050;55;20943;-66
2022/03/07 10:28:16;;;;;;;7.35;5.20;;;13.90;38.40;;;;;;2287807;55;20939;-66
2022/03/07 10:30:43;;;;;;;7.18;4.78;;;14.10;38.20;;;;;;2476899;54;21079;-65
2022/03/07 10:33:11;;;;;;;7.95;5.28;;;14.30;38.20;;;;;;2367971;55;20938;-67
2022/03/07 10:35:41;;;;;;;8.20;5.75;;;14.50;38.30;;;;;;2287356;55;21019;-66
2022/03/07 10:38:16;;;;;;;7.53;5.32;;;14.80;38.30;;;;;;2287395;55;20959;-67
2022/03/07 10:40:47;;;;;;;7.40;5.25;;;15.10;38.40;;;;;;2264565;56;20962;-66
2022/03/07 10:43:13;;;;;;;7.55;5.47;;;15.50;38.80;;;;;;2348741;55;20962;-66
2022/03/07 10:46:23;;;;;;;9.15;5.57;;;15.80;39.20;;;;;;2256398;56;20980;-65
2022/03/07 10:48:50;;;;;;;7.00;4.95;;;16.30;37.90;;;;;;2258162;56;20997;-66
2022/03/07 10:51:17;;;;;;;6.97;4.87;;;16.70;39.00;;;;;;2484532;55;21005;-66
2022/03/07 10:53:43;;;;;;;7.55;5.18;;;17.00;38.60;;;;;;2257000;56;20995;-66
2022/03/07 10:56:12;;;;;;;6.15;4.60;;;17.20;38.10;;;;;;2273620;56;20962;-66
2022/03/07 10:58:46;;;;;;;7.15;5.40;;;17.50;37.40;;;;;;2279027;56;20942;-67
2022/03/07 11:01:15;;;;;;;9.07;4.50;;;17.60;36.00;;;;;;2279089;56;20949;-66
2022/03/07 11:03:41;;;;;;;7.47;5.15;;;17.70;35.80;;;;;;2427066;55;21512;-67
2022/03/07 11:06:09;;;;;;;7.68;5.07;;;17.60;35.00;;;;;;2278548;56;21501;-66
2022/03/07 11:08:35;;;;;;;7.55;5.15;;;17.50;34.30;;;;;;2511533;55;21090;-67
2022/03/07 11:11:02;;;;;;;7.30;5.25;;;17.40;34.00;;;;;;2278265;56;21973;-66
2022/03/07 11:13:29;;;;;;;7.35;5.22;;;17.30;33.60;;;;;;2278952;56;21659;-66
2022/03/07 11:16:00;;;;;;;7.22;5.62;;;17.10;33.00;;;;;;2278022;56;20966;-67
2022/03/07 11:18:27;;;;;;;6.78;5.00;;;17.00;32.70;;;;;;2279230;55;20958;-67
2022/03/07 11:20:54;;;;;;;6.43;4.65;;;16.80;32.50;;;;;;2285873;56;21007;-65
2022/03/07 11:23:21;;;;;;;8.93;5.55;;;16.60;32.50;;;;;;2274506;55;20966;-67
2022/03/07 11:25:55;;;;;;;8.13;6.15;;;16.40;32.30;;;;;;2279176;56;21105;-66
2022/03/07 11:28:22;;;;;;;7.37;5.53;;;16.30;31.30;;;;;;2278990;56;21775;-67
2022/03/07 11:30:49;;;;;;;8.77;5.95;;;16.10;31.90;;;;;;2278862;56;21022;-65
2022/03/07 11:33:17;;;;;;;6.97;4.95;;;16.10;32.30;;;;;;2279093;56;20977;-67
2022/03/07 11:35:49;;;;;;;9.02;5.85;;;16.10;32.50;;;;;;2279059;56;20950;-65
2022/03/07 11:38:20;;;;;;;7.60;5.28;;;16.10;32.80;;;;;;2278668;56;20942;-66
2022/03/07 11:41:06;;;;;;;7.87;5.30;;;16.20;32.80;;;;;;2281397;55;20923;-67
2022/03/07 11:43:34;;;;;;;8.05;5.47;;;16.30;32.80;;;;;;2287412;55;21899;-67
2022/03/07 11:46:02;;;;;;;6.28;4.43;;;16.40;33.20;;;;;;2286495;55;20951;-66
2022/03/07 11:48:45;;;;;;;7.72;5.68;;;16.40;32.90;;;;;;2287418;55;21686;-66
2022/03/07 11:51:16;;;;;;;7.78;5.37;;;16.50;32.10;;;;;;2287019;55;20990;-66
2022/03/07 11:53:44;;;;;;;6.97;4.97;;;16.50;32.20;;;;;;2286983;55;21443;-66
2022/03/07 11:56:18;;;;;;;8.82;5.35;;;16.60;32.30;;;;;;2287904;55;20935;-66
2022/03/07 11:58:49;;;;;;;7.80;5.15;;;16.60;31.60;;;;;;2519955;55;21014;-67
2022/03/07 12:01:16;;;;;;;8.23;5.97;;;16.50;31.50;;;;;;2287693;55;20958;-66
2022/03/07 12:03:42;;;;;;;8.60;5.68;;;16.50;31.50;;;;;;2285475;55;20955;-66
2022/03/07 12:06:14;;;;;;;7.47;5.20;;;16.50;31.50;;;;;;2394924;55;21000;-66
2022/03/07 12:09:40;;;;;;;7.97;5.20;;;16.50;32.10;;;;;;2286640;55;21003;-67
2022/03/07 12:12:13;;;;;;;7.70;5.15;;;16.60;31.10;;;;;;2298595;55;21051;-65
2022/03/07 12:14:41;;;;;;;8.13;5.35;;;16.60;31.60;;;;;;2286995;55;21010;-66
2022/03/07 12:17:17;;;;;;;7.62;5.60;;;16.60;31.70;;;;;;2285603;55;20939;-67
2022/03/07 12:19:43;;;;;;;8.27;5.45;;;16.70;31.20;;;;;;2417405;54;20924;-67
2022/03/07 12:22:14;;;;;;;7.15;5.18;;;16.70;31.50;;;;;;2286471;55;20943;-67
2022/03/07 12:24:41;;;;;;;7.05;5.35;;;16.70;31.40;;;;;;2286913;55;21002;-67
2022/03/07 12:27:08;;;;;;;8.43;5.15;;;16.80;31.60;;;;;;2289103;55;21002;-66
2022/03/07 12:29:37;;;;;;;7.87;5.82;;;16.80;31.60;;;;;;2275686;55;21116;-67
2022/03/07 12:32:05;;;;;;;7.45;5.25;;;16.90;31.60;;;;;;2325402;55;20991;-65
2022/03/07 12:34:32;;;;;;;6.70;4.70;;;16.80;31.20;;;;;;2287692;55;21094;-66
2022/03/07 12:37:13;;;;;;;7.35;5.25;;;16.90;31.30;;;;;;2286815;55;20919;-67
2022/03/07 12:39:53;;;;;;;7.70;5.43;;;17.00;30.40;;;;;;2333813;55;21022;-66
2022/03/07 12:42:38;;;;;;;7.12;5.22;;;17.00;30.10;;;;;;2286916;55;20971;-66
2022/03/07 12:45:07;;;;;;;7.28;5.30;;;16.90;30.10;;;;;;2286939;55;21046;-66
2022/03/07 12:48:04;;;;;;;7.35;5.45;;;16.80;30.20;;;;;;2521065;54;20962;-66
2022/03/07 12:51:03;;;;;;;9.40;5.25;;;16.70;29.90;;;;;;2287096;55;21023;-65
2022/03/07 12:53:30;;;;;;;6.60;4.72;;;16.70;30.10;;;;;;2290080;55;20963;-66
2022/03/07 12:56:09;;;;;;;6.43;4.55;;;16.70;30.20;;;;;;2274646;55;20940;-67
2022/03/07 12:59:14;;;;;;;7.32;5.30;;;16.70;30.00;;;;;;2285637;55;20990;-67
2022/03/07 13:01:50;;;;;;;6.32;4.32;;;16.80;29.90;;;;;;2287392;55;21006;-66
2022/03/07 13:04:18;;;;;;;8.05;5.03;;;16.80;30.20;;;;;;2284829;55;20990;-66